Time;durP1;ratioP1;P1;durP2;ratioP2;P2;SDS_P1;SDS_P2;PMS_P1;PMS_P2;Temp;Humidity;BMP_temperature;BMP_pressure;BME280_temperature;BME280_humidity;BME280_pressure;Samples;Min_cycle;Max_cycle;Signal;HPM_P1;HPM_P2
2021/11/10 00:01:02;;;;;;;34.50;9.30;;;8.70;99.90;;;;;;4764901;29;20046;-83
2021/11/10 00:03:30;;;;;;;34.83;10.43;;;8.80;99.90;;;;;;4791996;29;20483;-86
2021/11/10 00:05:56;;;;;;;24.42;9.48;;;8.70;99.90;;;;;;4776552;29;20061;-83
2021/11/10 00:08:21;;;;;;;25.70;9.27;;;8.70;99.90;;;;;;4781539;29;20081;-86
2021/11/10 00:10:47;;;;;;;31.73;10.13;;;8.70;99.90;;;;;;4762797;29;20043;-86
2021/11/10 00:13:19;;;;;;;32.17;10.13;;;8.80;99.90;;;;;;4779022;29;20043;-85
2021/11/10 00:15:49;;;;;;;29.67;8.95;;;8.80;99.90;;;;;;4750114;29;20043;-85
2021/11/10 00:18:16;;;;;;;32.15;9.40;;;8.80;99.90;;;;;;4796499;29;20089;-84
2021/11/10 00:20:43;;;;;;;30.73;9.48;;;8.70;99.90;;;;;;4780505;29;20046;-87
2021/11/10 00:23:09;;;;;;;31.88;10.13;;;8.80;99.90;;;;;;4795006;29;20084;-84
2021/11/10 00:25:37;;;;;;;27.20;8.93;;;8.80;99.90;;;;;;4779858;29;20066;-85
2021/11/10 00:28:06;;;;;;;27.42;9.32;;;8.80;99.90;;;;;;4794314;29;20427;-86
2021/11/10 00:30:34;;;;;;;31.60;10.23;;;8.80;99.90;;;;;;4790529;29;20050;-87
2021/11/10 00:33:06;;;;;;;26.65;9.30;;;8.80;99.90;;;;;;4790539;29;20054;-87
2021/11/10 00:35:40;;;;;;;30.88;9.35;;;8.80;99.90;;;;;;4777366;29;20061;-86
2021/11/10 00:38:06;;;;;;;29.67;9.00;;;8.80;99.90;;;;;;4795046;29;20107;-90
2021/11/10 00:40:35;;;;;;;26.48;8.73;;;8.80;99.90;;;;;;4793097;29;20862;-88
2021/11/10 00:43:03;;;;;;;27.15;8.63;;;8.90;99.90;;;;;;4796586;29;20077;-87
2021/11/10 00:45:36;;;;;;;30.58;9.23;;;8.90;99.90;;;;;;4783856;29;20066;-87
2021/11/10 00:48:04;;;;;;;27.63;8.85;;;8.90;99.90;;;;;;4792994;29;20043;-90
2021/11/10 00:50:31;;;;;;;23.80;8.40;;;8.90;99.90;;;;;;4765170;29;20077;-89
2021/11/10 00:53:03;;;;;;;24.17;8.68;;;8.90;99.90;;;;;;4783178;29;20129;-89
2021/11/10 00:55:29;;;;;;;26.33;8.40;;;8.90;99.90;;;;;;4794026;29;20054;-88
2021/11/10 00:57:55;;;;;;;27.73;8.60;;;8.90;99.90;;;;;;4781978;29;20047;-88
2021/11/10 01:00:25;;;;;;;24.02;8.27;;;9.00;99.90;;;;;;4794102;29;20046;-88
2021/11/10 01:02:54;;;;;;;27.73;8.93;;;9.00;99.90;;;;;;4763953;29;20074;-87
2021/11/10 01:05:20;;;;;;;29.90;8.68;;;9.00;99.90;;;;;;4776309;29;20461;-85
2021/11/10 01:07:51;;;;;;;25.02;8.98;;;9.00;99.90;;;;;;4797697;29;20046;-86
2021/11/10 01:10:21;;;;;;;21.95;8.70;;;9.00;99.90;;;;;;4781398;29;20046;-87
2021/11/10 01:12:47;;;;;;;21.60;9.55;;;9.00;99.90;;;;;;4793189;29;20043;-87
2021/11/10 01:15:19;;;;;;;24.95;8.48;;;9.00;99.90;;;;;;4797422;29;20088;-90
2021/11/10 01:17:45;;;;;;;28.75;8.38;;;9.00;99.90;;;;;;4793044;29;20119;-89
2021/11/10 01:20:16;;;;;;;27.63;8.15;;;9.00;99.90;;;;;;4776963;29;20511;-88
2021/11/10 01:22:44;;;;;;;24.65;9.65;;;9.00;99.90;;;;;;4776871;29;20044;-87
2021/11/10 01:25:13;;;;;;;22.02;7.95;;;9.00;99.90;;;;;;4781468;29;20050;-88
2021/11/10 01:27:42;;;;;;;24.27;8.50;;;8.90;99.90;;;;;;4796140;29;20039;-89
2021/11/10 01:30:23;;;;;;;26.33;9.13;;;8.90;99.90;;;;;;4781408;29;20074;-89
2021/11/10 01:32:49;;;;;;;27.23;8.70;;;8.90;99.90;;;;;;4798067;29;20746;-88
2021/11/10 01:35:25;;;;;;;;;;;;;;;;;;;;;
2021/11/10 01:38:08;;;;;;;27.10;9.38;;;9.00;99.90;;;;;;4797457;29;20062;-89
2021/11/10 01:40:47;;;;;;;22.30;9.18;;;8.90;99.90;;;;;;4765469;29;20054;-89
2021/11/10 01:43:25;;;;;;;24.27;9.82;;;8.90;99.90;;;;;;4791975;29;20061;-89
2021/11/10 01:46:00;;;;;;;29.13;10.32;;;8.90;99.90;;;;;;4801192;29;20057;-89
2021/11/10 01:48:26;;;;;;;25.55;9.57;;;8.90;99.90;;;;;;4782782;29;20854;-90
2021/11/10 01:50:52;;;;;;;25.35;9.38;;;8.90;99.90;;;;;;4778828;29;20062;-88
2021/11/10 01:53:27;;;;;;;23.23;10.07;;;8.90;99.90;;;;;;4809217;29;20050;-87
2021/11/10 01:55:53;;;;;;;23.42;9.02;;;8.90;99.90;;;;;;4770185;29;20043;-88
2021/11/10 01:58:19;;;;;;;28.77;9.75;;;8.90;99.90;;;;;;4797143;29;20089;-86
2021/11/10 02:00:47;;;;;;;25.40;9.43;;;8.80;99.90;;;;;;4762490;29;20063;-88
2021/11/10 02:03:52;;;;;;;22.13;9.80;;;8.90;99.90;;;;;;4795142;29;20510;-87
2021/11/10 02:06:37;;;;;;;19.58;10.05;;;8.90;99.90;;;;;;4783130;29;20046;-86
2021/11/10 02:09:08;;;;;;;20.92;9.57;;;8.90;99.90;;;;;;4763961;29;20107;-87
2021/11/10 02:12:39;;;;;;;21.52;9.73;;;8.80;99.90;;;;;;4796796;29;20047;-88
2021/11/10 02:15:09;;;;;;;30.63;9.75;;;8.90;99.90;;;;;;4789584;29;20058;-87
2021/11/10 02:17:41;;;;;;;25.33;10.43;;;8.90;99.90;;;;;;4792220;29;20080;-86
2021/11/10 02:20:10;;;;;;;23.77;10.32;;;8.90;99.90;;;;;;4776794;29;20050;-87
2021/11/10 02:22:37;;;;;;;23.85;10.75;;;8.90;99.90;;;;;;4793675;29;21084;-86
2021/11/10 02:25:15;;;;;;;31.45;10.77;;;8.90;99.90;;;;;;4780365;29;20050;-86
2021/11/10 02:27:46;;;;;;;24.98;10.57;;;8.90;99.90;;;;;;4783117;29;20097;-87
2021/11/10 02:30:28;;;;;;;30.40;10.90;;;8.90;99.90;;;;;;4780376;29;20078;-87
2021/11/10 02:33:36;;;;;;;22.75;10.07;;;8.80;99.90;;;;;;4779118;29;20130;-87
2021/11/10 02:36:19;;;;;;;30.13;9.88;;;8.90;99.90;;;;;;4791972;29;20039;-86
2021/11/10 02:38:48;;;;;;;30.45;10.98;;;8.80;99.90;;;;;;4774662;29;20955;-87
2021/11/10 02:41:14;;;;;;;28.55;10.88;;;8.90;99.90;;;;;;4793420;29;20045;-88
2021/11/10 02:44:05;;;;;;;30.42;10.68;;;8.90;99.90;;;;;;4792146;29;20050;-85
2021/11/10 02:46:35;;;;;;;25.38;10.43;;;8.90;99.90;;;;;;4774733;29;20070;-86
2021/11/10 02:49:02;;;;;;;29.52;10.73;;;8.90;99.90;;;;;;4791321;29;20423;-88
2021/11/10 02:51:53;;;;;;;37.78;10.95;;;8.80;99.90;;;;;;4782299;29;20050;-87
2021/11/10 02:54:18;;;;;;;24.73;10.45;;;8.90;99.90;;;;;;4778124;29;21342;-87
2021/11/10 02:56:47;;;;;;;27.75;10.65;;;8.80;99.90;;;;;;4780746;29;20069;-87
2021/11/10 02:59:16;;;;;;;28.90;11.27;;;8.80;99.90;;;;;;4765712;29;20055;-84
2021/11/10 03:01:42;;;;;;;29.42;10.70;;;8.80;99.90;;;;;;4763714;29;20131;-86
2021/11/10 03:04:41;;;;;;;29.20;10.52;;;8.80;99.90;;;;;;4762579;29;20038;-87
2021/11/10 03:07:06;;;;;;;28.30;10.60;;;8.80;99.90;;;;;;4792579;29;20909;-87
2021/11/10 03:09:34;;;;;;;34.17;10.88;;;8.80;99.90;;;;;;4778450;29;20104;-85
2021/11/10 03:12:01;;;;;;;27.85;10.40;;;8.80;99.90;;;;;;4775174;29;20054;-86
2021/11/10 03:14:29;;;;;;;24.73;10.13;;;8.80;99.90;;;;;;4776378;29;20050;-86
2021/11/10 03:16:58;;;;;;;24.10;9.90;;;8.70;99.90;;;;;;4774885;29;20038;-85
2021/11/10 03:19:24;;;;;;;24.70;10.25;;;8.70;99.90;;;;;;4762521;29;20134;-86
2021/11/10 03:21:52;;;;;;;25.13;9.38;;;8.80;99.90;;;;;;4777704;29;20126;-86
2021/11/10 03:24:26;;;;;;;26.30;10.10;;;8.80;99.90;;;;;;4803728;29;20437;-86
2021/11/10 03:26:52;;;;;;;33.28;11.60;;;8.80;99.90;;;;;;4793502;29;20051;-87
2021/11/10 03:29:18;;;;;;;26.70;10.45;;;8.70;99.90;;;;;;4761954;29;20053;-87
2021/11/10 03:32:14;;;;;;;23.73;10.60;;;8.80;99.90;;;;;;4759569;29;20054;-85
2021/11/10 03:35:26;;;;;;;27.45;10.38;;;8.80;99.90;;;;;;4790189;29;20088;-86
2021/11/10 03:38:14;;;;;;;28.55;11.10;;;8.80;99.90;;;;;;4764842;29;20390;-83
2021/11/10 03:40:52;;;;;;;24.38;10.82;;;8.70;99.90;;;;;;4788762;29;21563;-86
2021/11/10 03:43:18;;;;;;;27.95;10.75;;;8.80;99.90;;;;;;4763389;29;20053;-86
2021/11/10 03:45:46;;;;;;;22.50;11.05;;;8.70;99.90;;;;;;4762196;29;20039;-87
2021/11/10 03:48:17;;;;;;;23.77;10.40;;;8.70;99.90;;;;;;4776528;29;20081;-87
2021/11/10 03:50:44;;;;;;;30.33;11.40;;;8.70;99.90;;;;;;4776128;29;20038;-86
2021/11/10 03:53:20;;;;;;;27.63;10.88;;;8.70;99.90;;;;;;4797927;29;20104;-88
2021/11/10 03:55:48;;;;;;;30.98;11.38;;;8.70;99.90;;;;;;4785432;29;20074;-88
2021/11/10 03:58:17;;;;;;;27.05;11.60;;;8.70;99.90;;;;;;4768365;29;20078;-85
2021/11/10 04:00:43;;;;;;;27.73;11.70;;;8.70;99.90;;;;;;4780861;29;20110;-87
2021/11/10 04:03:09;;;;;;;26.70;11.85;;;8.70;99.90;;;;;;4790929;29;20116;-85
2021/11/10 04:05:48;;;;;;;22.70;12.20;;;8.70;99.90;;;;;;4781201;29;20054;-86
2021/11/10 04:08:17;;;;;;;26.77;12.00;;;8.70;99.90;;;;;;4799122;29;20114;-87
2021/11/10 04:10:47;;;;;;;26.60;12.88;;;8.70;99.90;;;;;;4786030;29;20499;-87
2021/11/10 04:13:15;;;;;;;34.25;12.73;;;8.60;99.90;;;;;;4782737;29;20053;-85
2021/11/10 04:15:42;;;;;;;26.80;12.40;;;8.60;99.90;;;;;;4784865;29;20036;-87
2021/11/10 04:18:13;;;;;;;24.30;12.30;;;8.60;99.90;;;;;;4796668;29;20165;-87
2021/11/10 04:20:42;;;;;;;26.48;12.95;;;8.60;99.90;;;;;;4784458;29;20137;-88
2021/11/10 04:23:07;;;;;;;23.83;13.05;;;8.50;99.90;;;;;;4796145;29;20126;-85
2021/11/10 04:25:33;;;;;;;27.73;13.02;;;8.50;99.90;;;;;;4763553;29;20141;-85
2021/11/10 04:28:02;;;;;;;25.48;13.13;;;8.50;99.90;;;;;;4779928;29;20569;-86
2021/11/10 04:30:41;;;;;;;25.05;13.32;;;8.50;99.90;;;;;;4765778;29;20039;-86
2021/11/10 04:33:07;;;;;;;25.10;13.00;;;8.50;99.90;;;;;;4794976;29;20067;-85
2021/11/10 04:35:38;;;;;;;26.35;12.55;;;8.40;99.90;;;;;;4778747;29;20070;-86
2021/11/10 04:38:06;;;;;;;24.20;13.52;;;8.40;99.90;;;;;;4766529;29;20054;-87
2021/11/10 04:40:34;;;;;;;25.83;12.93;;;8.40;99.90;;;;;;4801747;29;20058;-89
2021/11/10 04:43:06;;;;;;;26.10;13.52;;;8.40;99.90;;;;;;4777947;29;20042;-88
2021/11/10 04:45:38;;;;;;;26.27;12.65;;;8.40;99.90;;;;;;4780773;29;20035;-86
2021/11/10 04:48:05;;;;;;;21.58;12.40;;;8.30;99.90;;;;;;4765907;29;20118;-85
2021/11/10 04:50:32;;;;;;;28.80;13.98;;;8.30;99.90;;;;;;4797334;29;20047;-88
2021/11/10 04:52:58;;;;;;;28.83;13.57;;;8.30;99.90;;;;;;4779634;29;20471;-87
2021/11/10 04:55:25;;;;;;;25.25;13.18;;;8.20;99.90;;;;;;4782501;29;20046;-86
2021/11/10 04:57:51;;;;;;;27.27;13.57;;;8.20;99.90;;;;;;4783753;29;20043;-86
2021/11/10 05:00:27;;;;;;;27.15;13.65;;;8.20;99.90;;;;;;4779528;29;20051;-88
2021/11/10 05:02:53;;;;;;;25.60;12.85;;;8.20;99.90;;;;;;4793260;29;20047;-87
2021/11/10 05:05:27;;;;;;;29.88;13.75;;;8.20;99.90;;;;;;4793729;29;20046;-87
2021/11/10 05:07:55;;;;;;;24.45;13.15;;;8.20;99.90;;;;;;4780026;29;20055;-88
2021/11/10 05:10:24;;;;;;;27.02;13.93;;;8.10;99.90;;;;;;4763824;29;20155;-89
2021/11/10 05:12:56;;;;;;;24.10;13.48;;;8.10;99.90;;;;;;4784292;29;20696;-86
2021/11/10 05:15:28;;;;;;;27.55;13.88;;;8.10;99.90;;;;;;4797089;29;20231;-87
2021/11/10 05:17:57;;;;;;;26.10;13.00;;;8.10;99.90;;;;;;4797241;29;20046;-88
2021/11/10 05:20:23;;;;;;;23.15;14.00;;;8.10;99.90;;;;;;4768296;29;20047;-87
2021/11/10 05:22:52;;;;;;;27.40;13.75;;;8.00;99.90;;;;;;4785708;29;20047;-86
2021/11/10 05:25:21;;;;;;;25.67;12.93;;;8.00;99.90;;;;;;4780234;29;20050;-87
2021/11/10 05:27:50;;;;;;;25.80;13.55;;;8.00;99.90;;;;;;4781481;29;20043;-87
2021/11/10 05:30:21;;;;;;;28.50;13.93;;;8.00;99.90;;;;;;4792394;29;20047;-85
2021/11/10 05:32:53;;;;;;;23.48;12.88;;;8.00;99.90;;;;;;4795378;29;20053;-87
2021/11/10 05:35:44;;;;;;;26.02;13.18;;;7.90;99.90;;;;;;4780754;29;20050;-87
2021/11/10 05:38:14;;;;;;;24.40;12.90;;;8.00;99.90;;;;;;4765302;29;21254;-87
2021/11/10 05:40:42;;;;;;;25.30;13.77;;;7.90;99.90;;;;;;4764842;29;20070;-87
2021/11/10 05:43:11;;;;;;;23.45;12.60;;;7.90;99.90;;;;;;4774174;29;20498;-86
2021/11/10 05:45:37;;;;;;;26.42;12.88;;;7.90;99.90;;;;;;4779105;29;20046;-87
2021/11/10 05:48:03;;;;;;;26.17;12.27;;;7.90;99.90;;;;;;4784184;29;20688;-87
2021/11/10 05:50:32;;;;;;;26.70;13.00;;;7.90;99.90;;;;;;4781383;29;20062;-88
2021/11/10 05:52:58;;;;;;;26.10;12.48;;;7.90;99.90;;;;;;4793797;29;20059;-86
2021/11/10 05:55:52;;;;;;;28.95;11.88;;;7.90;99.90;;;;;;4765654;29;20038;-87
2021/11/10 06:01:26;;;;;;;22.25;11.98;;;7.90;99.90;;;;;;4777818;29;20054;-85
2021/11/10 06:04:17;;;;;;;;;;;;;;;;;;;;;
2021/11/10 06:07:52;;;;;;;;;;;;;;;;;;;;;
2021/11/10 06:42:42;;;;;;;24.80;13.45;;;7.80;99.90;;;;;;4834614;27;20061;-86
2021/11/10 06:51:47;;;;;;;33.88;13.90;;;7.80;99.90;;;;;;4853635;23;20065;-87
2021/11/10 06:54:31;;;;;;;32.33;13.43;;;7.80;99.90;;;;;;4806465;29;20064;-87
2021/11/10 06:57:09;;;;;;;27.85;12.90;;;7.80;99.90;;;;;;4821371;29;20045;-87
2021/11/10 07:00:22;;;;;;;27.77;13.77;;;7.80;99.90;;;;;;4810218;29;20527;-87
2021/11/10 07:06:52;;;;;;;31.10;14.32;;;7.70;99.90;;;;;;4788745;29;20047;-85
2021/11/10 07:10:10;;;;;;;29.95;14.50;;;7.80;99.90;;;;;;4826745;29;20053;-88
2021/11/10 07:13:57;;;;;;;;;;;;;;;;;;;;;
2021/11/10 07:16:38;;;;;;;34.90;15.63;;;7.80;99.90;;;;;;4814299;29;20053;-86
2021/11/10 07:30:42;;;;;;;;;;;;;;;;;;;;;
2021/11/10 07:40:36;;;;;;;32.60;14.38;;;8.20;99.90;;;;;;4679859;30;20041;-87
2021/11/10 07:51:14;;;;;;;;;;;;;;;;;;;;;
2021/11/10 07:54:19;;;;;;;25.63;14.35;;;8.30;99.90;;;;;;4535700;31;20053;-87
2021/11/10 07:56:59;;;;;;;27.08;13.90;;;8.30;99.90;;;;;;4553211;31;21005;-89
2021/11/10 08:04:24;;;;;;;26.80;14.70;;;8.40;99.90;;;;;;4547120;31;20137;-87
2021/11/10 08:07:05;;;;;;;32.58;14.55;;;8.40;99.90;;;;;;4579412;31;20146;-88
2021/11/10 08:10:16;;;;;;;;;;;;;;;;;;;;;
2021/11/10 08:20:22;;;;;;;27.45;14.00;;;8.40;99.90;;;;;;4729603;29;20059;-87
2021/11/10 08:35:55;;;;;;;29.67;14.77;;;8.50;99.90;;;;;;4849394;23;21407;-85
2021/11/10 08:42:46;;;;;;;27.52;13.95;;;8.60;99.90;;;;;;4738259;30;20119;-86
2021/11/10 08:52:56;;;;;;;26.98;12.75;;;8.80;99.90;;;;;;4686860;30;20742;-88
2021/11/10 08:55:25;;;;;;;28.60;14.25;;;8.80;99.90;;;;;;4677462;30;20067;-86
2021/11/10 08:57:56;;;;;;;26.20;14.20;;;8.80;99.90;;;;;;4663133;30;20863;-91
2021/11/10 09:00:52;;;;;;;26.20;14.80;;;8.80;99.90;;;;;;4687212;30;20058;-86
2021/11/10 09:03:33;;;;;;;30.13;13.77;;;8.80;99.90;;;;;;4697864;30;20056;-87
2021/11/10 09:06:04;;;;;;;27.80;13.68;;;8.80;99.90;;;;;;4708720;30;20065;-86
2021/11/10 09:08:54;;;;;;;26.60;14.27;;;8.70;99.90;;;;;;4696425;30;20124;-86
2021/11/10 09:18:33;;;;;;;27.70;14.07;;;8.70;99.90;;;;;;4692909;30;20060;-84
2021/11/10 09:21:27;;;;;;;26.38;14.23;;;8.70;99.90;;;;;;4778231;29;20086;-86
2021/11/10 09:28:20;;;;;;;31.38;12.73;;;8.80;99.90;;;;;;4808413;29;20086;-84
2021/11/10 09:31:42;;;;;;;28.05;12.85;;;8.90;99.90;;;;;;4806972;29;20227;-85
2021/11/10 09:34:33;;;;;;;27.13;13.65;;;9.00;99.90;;;;;;4791709;29;20114;-86
2021/11/10 09:37:32;;;;;;;31.27;13.23;;;9.00;99.90;;;;;;4817492;29;20080;-85
2021/11/10 09:40:40;;;;;;;;;;;;;;;;;;;;;
2021/11/10 09:43:37;;;;;;;34.67;13.85;;;9.10;99.90;;;;;;4814832;29;21160;-86
2021/11/10 09:47:02;;;;;;;;;;;;;;;;;;;;;
2021/11/10 09:50:23;;;;;;;33.15;14.25;;;9.10;99.90;;;;;;4817123;29;20057;-86
2021/11/10 09:53:04;;;;;;;33.50;14.18;;;9.10;99.90;;;;;;4801508;29;20053;-84
2021/11/10 09:56:01;;;;;;;27.92;13.65;;;9.20;99.90;;;;;;4802598;29;20081;-84
2021/11/10 10:01:33;;;;;;;35.33;14.98;;;9.20;99.90;;;;;;4814139;29;20092;-87
2021/11/10 10:04:09;;;;;;;33.17;14.70;;;9.20;99.90;;;;;;4785707;29;20538;-87
2021/11/10 10:06:39;;;;;;;29.63;14.82;;;9.20;99.90;;;;;;4796965;29;20452;-87
2021/11/10 10:09:12;;;;;;;30.30;15.18;;;9.30;99.90;;;;;;4796637;29;20044;-83
2021/11/10 10:11:53;;;;;;;37.08;15.43;;;9.20;99.90;;;;;;4797640;29;20478;-82
2021/11/10 10:18:14;;;;;;;32.58;14.55;;;9.20;99.90;;;;;;4796396;29;20624;-86
2021/11/10 10:21:27;;;;;;;37.15;15.25;;;9.20;99.90;;;;;;4814484;29;20054;-82
2021/11/10 10:24:46;;;;;;;36.17;14.50;;;9.10;99.90;;;;;;4810015;29;20057;-83
2021/11/10 10:27:46;;;;;;;36.13;14.43;;;9.10;99.90;;;;;;4798973;29;20051;-84
2021/11/10 10:30:48;;;;;;;31.02;15.45;;;9.10;99.90;;;;;;4793896;29;21554;-81
2021/11/10 10:37:09;;;;;;;31.03;13.73;;;9.10;99.90;;;;;;4779462;29;20115;-84
2021/11/10 10:41:07;;;;;;;;;;;;;;;;;;;;;
2021/11/10 10:43:58;;;;;;;;;;;;;;;;;;;;;
2021/11/10 10:47:08;;;;;;;32.72;14.63;;;9.00;99.90;;;;;;4781960;29;20058;-84
2021/11/10 10:49:50;;;;;;;35.28;14.77;;;8.90;99.90;;;;;;4807396;29;20136;-82
2021/11/10 10:52:29;;;;;;;32.97;14.55;;;8.90;99.90;;;;;;4797264;29;20042;-84
2021/11/10 10:54:58;;;;;;;30.67;13.63;;;8.90;99.90;;;;;;4811097;29;20088;-83
2021/11/10 10:57:48;;;;;;;32.70;13.18;;;9.00;99.90;;;;;;4794333;29;20074;-84
2021/11/10 11:00:37;;;;;;;35.03;14.18;;;9.00;99.90;;;;;;4809100;29;20126;-83
2021/11/10 11:03:37;;;;;;;33.75;13.48;;;9.00;99.90;;;;;;4792224;29;20053;-81
2021/11/10 11:06:09;;;;;;;37.20;14.38;;;9.00;99.90;;;;;;4797041;29;20050;-85
2021/11/10 11:08:42;;;;;;;32.73;12.67;;;9.00;99.90;;;;;;4781320;29;20041;-83
2021/11/10 11:18:12;;;;;;;;;;;;;;;;;;;;;
2021/11/10 11:21:19;;;;;;;34.65;13.70;;;9.00;99.90;;;;;;4772362;29;20067;-84
2021/11/10 11:23:57;;;;;;;30.02;12.45;;;9.00;99.90;;;;;;4793994;29;20059;-83
2021/11/10 11:26:34;;;;;;;30.45;13.57;;;9.00;99.90;;;;;;4768571;29;20088;-83
2021/11/10 11:29:31;;;;;;;32.35;12.82;;;9.00;99.90;;;;;;4798530;29;20066;-83
2021/11/10 11:32:28;;;;;;;33.63;12.77;;;9.10;99.90;;;;;;4786113;29;20054;-82
2021/11/10 11:35:09;;;;;;;35.28;12.95;;;9.10;99.90;;;;;;4791407;29;20114;-85
2021/11/10 11:37:52;;;;;;;;;;;;;;;;;;;;;
2021/11/10 11:45:44;;;;;;;30.50;12.90;;;9.10;99.90;;;;;;4824795;29;20053;-84
2021/11/10 11:48:22;;;;;;;29.45;13.48;;;9.20;99.90;;;;;;4804610;29;20110;-83
2021/11/10 11:51:06;;;;;;;;;;;;;;;;;;;;;
2021/11/10 11:53:42;;;;;;;27.75;12.30;;;9.10;99.90;;;;;;4803138;29;20693;-83
2021/11/10 11:56:36;;;;;;;26.25;12.45;;;9.20;99.90;;;;;;4794650;29;20060;-83
2021/11/10 11:59:44;;;;;;;33.53;12.85;;;9.20;99.90;;;;;;4802981;29;20038;-84
2021/11/10 12:02:51;;;;;;;34.58;12.93;;;9.20;99.90;;;;;;4788996;29;20137;-82
2021/11/10 12:05:49;;;;;;;32.42;12.13;;;9.20;99.90;;;;;;4810292;29;20054;-84
2021/11/10 12:08:46;;;;;;;27.73;12.60;;;9.20;99.90;;;;;;4817941;29;20394;-82
2021/11/10 12:11:31;;;;;;;30.08;12.85;;;9.20;99.90;;;;;;4794109;29;20030;-82
2021/11/10 12:14:20;;;;;;;25.15;12.00;;;9.30;99.90;;;;;;4807153;29;20066;-83
2021/11/10 12:16:58;;;;;;;29.33;11.38;;;9.20;99.90;;;;;;4795705;29;20533;-83
2021/11/10 12:19:33;;;;;;;26.75;12.45;;;9.30;99.90;;;;;;4805322;29;20042;-83
2021/11/10 12:22:09;;;;;;;29.17;12.35;;;9.30;99.90;;;;;;4802610;29;20085;-83
2021/11/10 12:24:54;;;;;;;27.15;12.55;;;9.30;99.90;;;;;;4803604;29;20693;-84
2021/11/10 12:27:50;;;;;;;;;;;;;;;;;;;;;
2021/11/10 12:30:30;;;;;;;27.25;12.15;;;9.30;99.90;;;;;;4807472;29;20061;-83
2021/11/10 12:33:08;;;;;;;35.33;13.23;;;9.30;99.90;;;;;;4796044;29;20122;-84
2021/11/10 12:35:44;;;;;;;32.92;12.43;;;9.30;99.90;;;;;;4784196;29;20086;-83
2021/11/10 12:38:25;;;;;;;36.50;13.20;;;9.30;99.90;;;;;;4798772;29;20065;-83
2021/11/10 12:40:59;;;;;;;27.63;12.30;;;9.40;99.90;;;;;;4778627;29;20651;-83
2021/11/10 12:43:40;;;;;;;30.95;12.15;;;9.30;99.90;;;;;;4805282;29;20077;-83
2021/11/10 12:46:28;;;;;;;31.38;13.27;;;9.40;99.90;;;;;;4807920;29;20137;-83
2021/11/10 12:48:55;;;;;;;26.27;12.32;;;9.40;99.90;;;;;;4796169;29;20057;-83
2021/11/10 12:51:31;;;;;;;30.38;13.18;;;9.40;99.90;;;;;;4793667;29;20045;-83
2021/11/10 12:54:06;;;;;;;31.95;13.65;;;9.40;99.90;;;;;;4795542;29;20435;-83
2021/11/10 12:56:47;;;;;;;32.00;13.10;;;9.40;99.90;;;;;;4793550;29;20125;-83
2021/11/10 12:59:21;;;;;;;30.50;13.55;;;9.40;99.90;;;;;;4794491;29;20044;-83
2021/11/10 13:01:47;;;;;;;34.78;13.20;;;9.50;99.90;;;;;;4800648;29;20039;-83
2021/11/10 13:04:12;;;;;;;44.33;14.27;;;9.50;99.90;;;;;;4793354;29;20053;-84
2021/11/10 13:06:49;;;;;;;35.70;13.07;;;9.50;99.90;;;;;;4796872;29;20050;-84
2021/11/10 13:11:59;;;;;;;27.60;13.55;;;9.50;99.90;;;;;;4813385;29;20624;-83
2021/11/10 13:14:27;;;;;;;33.03;14.38;;;9.50;99.90;;;;;;4806688;29;20046;-84
2021/11/10 13:16:59;;;;;;;36.95;13.82;;;9.50;99.90;;;;;;4799219;29;20050;-84
2021/11/10 13:20:04;;;;;;;33.73;13.07;;;9.50;99.90;;;;;;4808062;29;20049;-85
2021/11/10 13:22:30;;;;;;;40.72;13.88;;;9.50;99.90;;;;;;4817785;29;21544;-86
2021/11/10 13:25:24;;;;;;;34.53;14.07;;;9.50;99.90;;;;;;4802526;29;20037;-85
2021/11/10 13:28:11;;;;;;;28.17;13.27;;;9.60;99.90;;;;;;4831592;29;20049;-86
2021/11/10 13:30:45;;;;;;;37.90;13.00;;;9.60;99.90;;;;;;4817084;29;20522;-85
2021/11/10 13:33:37;;;;;;;36.75;13.30;;;9.50;99.90;;;;;;4812819;29;20057;-87
2021/11/10 13:36:03;;;;;;;39.75;12.98;;;9.60;99.90;;;;;;4795744;29;20074;-86
2021/11/10 13:38:58;;;;;;;30.75;13.63;;;9.60;99.90;;;;;;4809626;29;20045;-86
2021/11/10 13:41:45;;;;;;;29.88;13.40;;;9.60;99.90;;;;;;4799875;29;20187;-86
2021/11/10 13:44:22;;;;;;;29.13;12.88;;;9.60;99.90;;;;;;4813596;29;20046;-84
2021/11/10 13:47:39;;;;;;;26.05;12.77;;;9.60;99.90;;;;;;4799617;29;20058;-88
2021/11/10 13:50:07;;;;;;;33.13;13.07;;;9.70;99.90;;;;;;4807595;29;20041;-86
2021/11/10 13:52:36;;;;;;;29.23;13.20;;;9.70;99.90;;;;;;4820999;29;20066;-86
2021/11/10 13:58:14;;;;;;;34.30;13.05;;;9.70;99.90;;;;;;4814229;29;20050;-85
2021/11/10 14:00:55;;;;;;;35.13;14.30;;;9.70;99.90;;;;;;4812133;29;20106;-87
2021/11/10 14:03:27;;;;;;;27.92;13.65;;;9.70;99.90;;;;;;4787962;29;20093;-86
2021/11/10 14:05:57;;;;;;;28.47;12.80;;;9.70;99.90;;;;;;4803740;29;20482;-87
2021/11/10 14:08:41;;;;;;;31.70;14.15;;;9.70;99.90;;;;;;4816145;29;20314;-86
2021/11/10 14:11:21;;;;;;;29.90;14.00;;;9.70;99.90;;;;;;4788233;29;20125;-86
2021/11/10 14:16:58;;;;;;;28.17;13.32;;;9.80;99.90;;;;;;4807773;29;20053;-87
2021/11/10 14:19:28;;;;;;;32.13;14.00;;;9.80;99.90;;;;;;4815656;29;20037;-86
2021/11/10 14:22:50;;;;;;;33.22;14.23;;;9.80;99.90;;;;;;4802331;29;20093;-86
2021/11/10 14:25:45;;;;;;;28.13;14.32;;;9.80;99.90;;;;;;4816777;29;21531;-87
2021/11/10 14:28:52;;;;;;;34.65;14.25;;;9.90;99.90;;;;;;4813614;29;20050;-85
2021/11/10 14:31:54;;;;;;;34.47;13.80;;;9.90;99.90;;;;;;4798042;29;20135;-86
2021/11/10 14:34:33;;;;;;;30.17;14.05;;;9.90;99.90;;;;;;4815389;29;20073;-86
2021/11/10 14:43:48;;;;;;;32.08;13.48;;;9.80;99.90;;;;;;4808115;29;20052;-86
2021/11/10 14:46:23;;;;;;;28.60;13.43;;;9.90;99.90;;;;;;4814001;29;20038;-87
2021/11/10 14:52:50;;;;;;;35.05;13.70;;;9.80;99.90;;;;;;4814917;29;20051;-87
2021/11/10 14:56:19;;;;;;;37.08;14.65;;;9.70;99.90;;;;;;4796493;29;20142;-88
2021/11/10 14:59:32;;;;;;;35.42;15.13;;;9.70;99.90;;;;;;4804993;29;20057;-86
2021/11/10 15:02:56;;;;;;;27.58;14.38;;;9.60;99.90;;;;;;4802957;29;20332;-85
2021/11/10 15:06:19;;;;;;;37.42;14.43;;;9.60;99.90;;;;;;4767221;29;20093;-86
2021/11/10 15:10:04;;;;;;;;;;;;;;;;;;;;;
2021/11/10 15:12:32;;;;;;;35.92;15.10;;;9.50;99.90;;;;;;4800599;29;20472;-85
2021/11/10 15:18:33;;;;;;;43.90;15.05;;;9.50;99.90;;;;;;4822262;29;20049;-88
2021/11/10 15:25:08;;;;;;;34.28;15.00;;;9.40;99.90;;;;;;4801472;29;20494;-88
2021/11/10 15:32:20;;;;;;;;;;;;;;;;;;;;;
2021/11/10 15:34:54;;;;;;;33.60;16.50;;;9.30;99.90;;;;;;4811813;29;20104;-88
2021/11/10 15:37:29;;;;;;;38.45;17.23;;;9.30;99.90;;;;;;4783837;29;20716;-88
2021/11/10 15:40:00;;;;;;;40.35;17.95;;;9.20;99.90;;;;;;4789436;29;20038;-88
2021/11/10 15:42:26;;;;;;;36.33;17.90;;;9.20;99.90;;;;;;4801021;29;20049;-88
2021/11/10 15:45:13;;;;;;;38.50;17.73;;;9.20;99.90;;;;;;4800550;29;22469;-87
2021/11/10 15:47:54;;;;;;;37.20;17.92;;;9.20;99.90;;;;;;4801635;29;20041;-86
2021/11/10 15:50:29;;;;;;;43.25;17.80;;;9.20;99.90;;;;;;4788134;29;20082;-88
2021/11/10 15:53:57;;;;;;;37.95;17.92;;;9.10;99.90;;;;;;4803850;29;20106;-88
2021/11/10 15:56:23;;;;;;;38.83;18.90;;;9.10;99.90;;;;;;4804859;29;20678;-83
2021/11/10 15:58:57;;;;;;;33.75;17.40;;;9.10;99.90;;;;;;4807390;29;20075;-87
2021/11/10 16:01:40;;;;;;;38.67;19.50;;;9.10;99.90;;;;;;4816503;29;20769;-87
2021/11/10 16:04:30;;;;;;;43.38;19.95;;;9.10;99.90;;;;;;4822225;29;20705;-85
2021/11/10 16:06:58;;;;;;;42.30;19.63;;;9.00;99.90;;;;;;4819648;29;20061;-85
2021/11/10 16:12:24;;;;;;;43.60;18.42;;;9.00;99.90;;;;;;4806629;29;20179;-88
2021/11/10 16:15:02;;;;;;;42.30;20.10;;;9.00;99.90;;;;;;4795039;29;20038;-85
2021/11/10 16:17:51;;;;;;;38.10;18.38;;;9.00;99.90;;;;;;4804787;29;20085;-85
2021/11/10 16:20:28;;;;;;;41.13;19.45;;;8.90;99.90;;;;;;4799803;29;20037;-85
2021/11/10 16:22:57;;;;;;;44.20;19.42;;;9.00;99.90;;;;;;4789185;29;20130;-83
2021/11/10 16:25:36;;;;;;;43.75;19.05;;;8.90;99.90;;;;;;4800728;29;20061;-86
2021/11/10 16:28:16;;;;;;;42.17;19.42;;;8.90;99.90;;;;;;4818853;29;20078;-85
2021/11/10 16:37:17;;;;;;;42.55;20.25;;;9.00;99.90;;;;;;4804095;29;20133;-83
2021/11/10 16:39:48;;;;;;;40.58;20.90;;;8.90;99.90;;;;;;4799897;29;20042;-83
2021/11/10 16:42:40;;;;;;;47.58;22.35;;;9.00;99.90;;;;;;4780961;29;20049;-84
2021/11/10 16:45:34;;;;;;;53.28;22.13;;;9.00;99.90;;;;;;4799565;29;20534;-85
2021/11/10 16:48:14;;;;;;;50.75;23.17;;;9.00;99.90;;;;;;4789861;29;20054;-85
2021/11/10 16:50:52;;;;;;;;;;;;;;;;;;;;;
2021/11/10 16:53:27;;;;;;;48.85;22.70;;;8.90;99.90;;;;;;4811555;29;20054;-84
2021/11/10 16:56:13;;;;;;;47.30;22.50;;;8.90;99.90;;;;;;4791621;29;20093;-84
2021/11/10 16:58:45;;;;;;;48.10;23.33;;;8.90;99.90;;;;;;4803617;29;20077;-85
2021/11/10 17:01:25;;;;;;;57.30;24.33;;;8.90;99.90;;;;;;4795830;29;20046;-86
2021/11/10 17:03:53;;;;;;;56.47;24.20;;;8.90;99.90;;;;;;4780710;29;20038;-83
2021/11/10 17:06:24;;;;;;;54.75;23.83;;;8.90;99.90;;;;;;4795986;29;20046;-83
2021/11/10 17:09:03;;;;;;;57.90;23.30;;;8.90;99.90;;;;;;4810511;29;20493;-85